Time;durP1;ratioP1;P1;durP2;ratioP2;P2;SDS_P1;SDS_P2;PMS_P1;PMS_P2;Temp;Humidity;BMP_temperature;BMP_pressure;BME280_temperature;BME280_humidity;BME280_pressure;Samples;Min_cycle;Max_cycle;Signal;HPM_P1;HPM_P2
2022/12/01 00:00:20;;;;;;;;;;;21.90;37.80;;;;;;464884;256;1309;-43
2022/12/01 00:02:21;;;;;;;;;;;21.80;37.90;;;;;;464741;256;1953;-44
2022/12/01 00:04:23;;;;;;;;;;;21.80;38.00;;;;;;464908;256;1248;-45
2022/12/01 00:06:24;;;;;;;;;;;21.80;38.10;;;;;;464730;256;2171;-45
2022/12/01 00:08:26;;;;;;;;;;;21.80;38.10;;;;;;464814;256;2198;-45
2022/12/01 00:10:27;;;;;;;;;;;21.70;38.10;;;;;;464833;256;1400;-45
2022/12/01 00:12:29;;;;;;;;;;;21.70;38.20;;;;;;464647;256;1489;-43
2022/12/01 00:14:30;;;;;;;;;;;21.70;38.30;;;;;;464832;256;1941;-44
2022/12/01 00:16:32;;;;;;;;;;;21.60;38.30;;;;;;464727;256;2166;-42
2022/12/01 00:18:33;;;;;;;;;;;21.60;38.40;;;;;;464790;256;1368;-45
2022/12/01 00:20:35;;;;;;;;;;;21.60;38.40;;;;;;464818;256;1999;-42
2022/12/01 00:22:36;;;;;;;;;;;21.60;38.40;;;;;;464794;256;1706;-45
2022/12/01 00:24:38;;;;;;;;;;;21.50;38.40;;;;;;464870;256;1705;-45
2022/12/01 00:26:39;;;;;;;;;;;21.50;38.50;;;;;;464857;256;2206;-45
2022/12/01 00:28:41;;;;;;;;;;;21.50;38.60;;;;;;464864;256;1709;-44
2022/12/01 00:30:43;;;;;;;;;;;21.40;38.60;;;;;;464822;256;1286;-45
2022/12/01 00:32:44;;;;;;;;;;;21.40;38.60;;;;;;464913;256;2156;-44
2022/12/01 00:34:45;;;;;;;;;;;21.40;38.60;;;;;;464526;256;1516;-45
2022/12/01 00:36:47;;;;;;;;;;;21.40;38.60;;;;;;464966;256;1259;-45
2022/12/01 00:38:48;;;;;;;;;;;21.40;38.70;;;;;;464838;256;1251;-45
2022/12/01 00:40:50;;;;;;;;;;;21.40;38.60;;;;;;465018;256;1361;-44
2022/12/01 00:42:51;;;;;;;;;;;21.30;38.60;;;;;;464890;256;1241;-45
2022/12/01 00:44:52;;;;;;;;;;;21.40;38.80;;;;;;464818;256;3239;-42
2022/12/01 00:46:54;;;;;;;;;;;21.30;38.60;;;;;;464861;256;2218;-44
2022/12/01 00:48:56;;;;;;;;;;;21.30;38.70;;;;;;464805;256;1798;-44
2022/12/01 00:50:58;;;;;;;;;;;21.30;38.80;;;;;;464744;256;1739;-44
2022/12/01 00:52:59;;;;;;;;;;;21.30;38.80;;;;;;464810;256;1734;-45
2022/12/01 00:55:01;;;;;;;;;;;21.30;38.90;;;;;;464869;256;1664;-45
2022/12/01 00:57:02;;;;;;;;;;;21.30;38.90;;;;;;464745;256;1373;-45
2022/12/01 00:59:03;;;;;;;;;;;21.30;38.90;;;;;;464903;256;1904;-45
2022/12/01 01:01:05;;;;;;;;;;;21.30;38.90;;;;;;464846;256;1322;-44
2022/12/01 01:03:07;;;;;;;;;;;21.30;38.90;;;;;;464961;256;1697;-45
2022/12/01 01:05:08;;;;;;;;;;;21.30;38.90;;;;;;464908;256;1350;-44
2022/12/01 01:07:10;;;;;;;;;;;21.30;38.90;;;;;;464759;256;2187;-40
2022/12/01 01:09:11;;;;;;;;;;;21.20;39.00;;;;;;464909;256;2698;-45
2022/12/01 01:11:13;;;;;;;;;;;21.20;39.00;;;;;;464875;256;1361;-44
2022/12/01 01:13:14;;;;;;;;;;;21.20;39.00;;;;;;464959;256;1707;-45
2022/12/01 01:15:16;;;;;;;;;;;21.20;39.00;;;;;;464845;256;1254;-45
2022/12/01 01:17:18;;;;;;;;;;;21.20;39.00;;;;;;464639;256;1634;-45
2022/12/01 01:19:19;;;;;;;;;;;21.20;39.00;;;;;;464795;256;1287;-42
2022/12/01 01:21:21;;;;;;;;;;;21.10;39.00;;;;;;464595;256;1926;-44
2022/12/01 01:23:22;;;;;;;;;;;21.10;39.00;;;;;;464924;256;1720;-45
2022/12/01 01:25:23;;;;;;;;;;;21.10;39.10;;;;;;464871;256;2598;-43
2022/12/01 01:27:25;;;;;;;;;;;21.10;39.00;;;;;;464677;256;2202;-43
2022/12/01 01:29:26;;;;;;;;;;;21.10;39.00;;;;;;464937;256;1800;-41
2022/12/01 01:31:27;;;;;;;;;;;21.20;39.10;;;;;;464588;256;1923;-44
2022/12/01 01:33:29;;;;;;;;;;;21.10;39.00;;;;;;464790;256;2751;-45
2022/12/01 01:35:30;;;;;;;;;;;21.20;39.00;;;;;;465014;256;1668;-43
2022/12/01 01:37:31;;;;;;;;;;;21.10;39.00;;;;;;464883;256;1372;-44
2022/12/01 01:39:33;;;;;;;;;;;21.10;39.10;;;;;;464890;256;1328;-43
2022/12/01 01:41:34;;;;;;;;;;;21.00;39.10;;;;;;464944;256;1236;-41
2022/12/01 01:43:36;;;;;;;;;;;21.10;39.20;;;;;;464928;256;1467;-41
2022/12/01 01:45:37;;;;;;;;;;;21.10;39.20;;;;;;464853;256;1368;-44
2022/12/01 01:47:39;;;;;;;;;;;21.10;39.20;;;;;;464847;256;2154;-44
2022/12/01 01:49:40;;;;;;;;;;;21.10;39.20;;;;;;465059;256;1540;-44
2022/12/01 01:51:42;;;;;;;;;;;21.00;39.10;;;;;;464756;256;2042;-43
2022/12/01 01:53:43;;;;;;;;;;;21.00;39.10;;;;;;464890;256;1295;-44
2022/12/01 01:55:45;;;;;;;;;;;21.00;39.20;;;;;;464843;256;1270;-44
2022/12/01 01:57:46;;;;;;;;;;;21.00;39.20;;;;;;464992;256;1289;-44
2022/12/01 01:59:47;;;;;;;;;;;21.00;39.20;;;;;;464873;256;1449;-42
2022/12/01 02:01:49;;;;;;;;;;;21.00;39.30;;;;;;464991;256;1251;-45
2022/12/01 02:03:50;;;;;;;;;;;21.00;39.20;;;;;;464860;256;1959;-45
2022/12/01 02:05:52;;;;;;;;;;;21.00;39.20;;;;;;465110;256;1224;-43
2022/12/01 02:07:54;;;;;;;;;;;21.00;39.20;;;;;;464809;256;2206;-41
2022/12/01 02:09:56;;;;;;;;;;;21.00;39.20;;;;;;465073;256;1249;-42
2022/12/01 02:11:57;;;;;;;;;;;21.00;39.20;;;;;;464837;256;1283;-45
2022/12/01 02:13:59;;;;;;;;;;;21.00;39.20;;;;;;464930;256;2138;-45
2022/12/01 02:16:02;;;;;;;;;;;21.00;39.30;;;;;;464896;256;1704;-44
2022/12/01 02:18:03;;;;;;;;;;;21.00;39.20;;;;;;464882;256;2227;-44
2022/12/01 02:20:04;;;;;;;;;;;21.00;39.20;;;;;;464837;256;1219;-44
2022/12/01 02:22:06;;;;;;;;;;;21.00;39.30;;;;;;464961;256;3141;-45
2022/12/01 02:24:07;;;;;;;;;;;21.00;39.20;;;;;;464799;256;2652;-45
2022/12/01 02:26:08;;;;;;;;;;;21.00;39.20;;;;;;464938;256;1221;-45
2022/12/01 02:28:10;;;;;;;;;;;21.00;39.30;;;;;;464836;256;2260;-44
2022/12/01 02:30:12;;;;;;;;;;;21.00;39.30;;;;;;465093;256;1244;-45
2022/12/01 02:32:13;;;;;;;;;;;21.00;39.30;;;;;;464825;256;1319;-44
2022/12/01 02:34:15;;;;;;;;;;;21.00;39.20;;;;;;464881;256;1369;-45
2022/12/01 02:36:16;;;;;;;;;;;21.00;39.30;;;;;;464849;256;1292;-44
2022/12/01 02:38:18;;;;;;;;;;;21.00;39.30;;;;;;464962;256;1321;-44
2022/12/01 02:40:19;;;;;;;;;;;21.00;39.20;;;;;;464817;256;1483;-44
2022/12/01 02:44:41;;;;;;;;;;;21.00;39.30;;;;;;464795;257;1443;-44
2022/12/01 02:46:42;;;;;;;;;;;20.90;39.30;;;;;;464761;256;2602;-45
2022/12/01 02:48:44;;;;;;;;;;;20.90;39.20;;;;;;464972;256;2202;-41
2022/12/01 02:50:46;;;;;;;;;;;20.90;39.30;;;;;;464751;256;1841;-44
2022/12/01 02:52:47;;;;;;;;;;;21.00;39.30;;;;;;464723;256;1648;-43
2022/12/01 02:54:49;;;;;;;;;;;20.90;39.30;;;;;;464697;256;1443;-45
2022/12/01 02:56:50;;;;;;;;;;;20.90;39.30;;;;;;464778;256;2102;-42
2022/12/01 02:58:51;;;;;;;;;;;21.00;39.30;;;;;;464914;256;1656;-41
2022/12/01 03:00:53;;;;;;;;;;;20.90;39.20;;;;;;464828;256;1417;-45
2022/12/01 03:02:54;;;;;;;;;;;20.90;39.20;;;;;;464793;256;1468;-44
2022/12/01 03:04:55;;;;;;;;;;;20.90;39.30;;;;;;464777;256;1282;-45
2022/12/01 03:06:57;;;;;;;;;;;20.90;39.30;;;;;;464921;256;1625;-41
2022/12/01 03:08:58;;;;;;;;;;;21.00;39.30;;;;;;464781;256;2267;-42
2022/12/01 03:10:59;;;;;;;;;;;20.90;39.20;;;;;;464894;256;1384;-41
2022/12/01 03:13:01;;;;;;;;;;;21.00;39.30;;;;;;464840;256;1386;-43
2022/12/01 03:15:03;;;;;;;;;;;20.90;39.30;;;;;;464879;256;1203;-45
2022/12/01 03:17:04;;;;;;;;;;;20.90;39.30;;;;;;464802;256;1241;-44
2022/12/01 03:19:06;;;;;;;;;;;20.90;39.20;;;;;;465011;256;1458;-45
2022/12/01 03:21:07;;;;;;;;;;;20.90;39.30;;;;;;464819;256;1245;-43
2022/12/01 03:23:09;;;;;;;;;;;20.90;39.30;;;;;;465056;256;1252;-44
2022/12/01 03:25:10;;;;;;;;;;;20.90;39.30;;;;;;464920;256;1325;-42
2022/12/01 03:27:12;;;;;;;;;;;20.90;39.30;;;;;;464910;256;3092;-45
2022/12/01 03:29:13;;;;;;;;;;;20.90;39.30;;;;;;464983;256;2139;-45
2022/12/01 03:31:15;;;;;;;;;;;20.90;39.40;;;;;;464845;256;2886;-45
2022/12/01 03:33:17;;;;;;;;;;;20.90;39.40;;;;;;464805;256;2507;-45
2022/12/01 03:35:18;;;;;;;;;;;20.90;39.30;;;;;;464686;257;1912;-45
2022/12/01 03:37:20;;;;;;;;;;;20.90;39.30;;;;;;464905;256;1414;-45
2022/12/01 03:39:23;;;;;;;;;;;20.90;39.30;;;;;;464898;256;3262;-43
2022/12/01 03:41:25;;;;;;;;;;;20.90;39.30;;;;;;464908;256;1451;-45
2022/12/01 03:43:27;;;;;;;;;;;20.80;39.30;;;;;;464930;256;1435;-45
2022/12/01 03:45:28;;;;;;;;;;;20.80;39.30;;;;;;464871;256;1584;-42
2022/12/01 03:47:31;;;;;;;;;;;20.90;39.40;;;;;;464996;256;1447;-44
2022/12/01 03:49:31;;;;;;;;;;;20.90;39.30;;;;;;464810;257;2116;-44
2022/12/01 03:51:32;;;;;;;;;;;20.90;39.40;;;;;;464927;256;1405;-44
2022/12/01 03:53:34;;;;;;;;;;;20.80;39.30;;;;;;464941;256;1699;-42
2022/12/01 03:55:36;;;;;;;;;;;20.80;39.30;;;;;;464824;256;2149;-42
2022/12/01 03:57:37;;;;;;;;;;;20.80;39.30;;;;;;464776;256;2084;-42
2022/12/01 03:59:41;;;;;;;;;;;20.80;39.40;;;;;;464812;256;1422;-45
2022/12/01 04:01:42;;;;;;;;;;;20.90;39.40;;;;;;464965;256;1384;-42
2022/12/01 04:03:45;;;;;;;;;;;20.80;39.40;;;;;;464916;256;1349;-43
2022/12/01 04:05:47;;;;;;;;;;;20.80;39.40;;;;;;464902;256;2705;-45
2022/12/01 04:07:48;;;;;;;;;;;20.90;39.40;;;;;;464746;256;2190;-42
2022/12/01 04:09:51;;;;;;;;;;;20.90;39.30;;;;;;464820;256;1417;-44
2022/12/01 04:14:11;;;;;;;;;;;21.00;39.20;;;;;;464850;257;1295;-45
2022/12/01 04:16:13;;;;;;;;;;;21.20;38.80;;;;;;464810;256;1347;-45
2022/12/01 04:18:15;;;;;;;;;;;21.40;38.40;;;;;;465080;256;1212;-45
2022/12/01 04:20:17;;;;;;;;;;;21.60;38.10;;;;;;464927;256;1265;-45
2022/12/01 04:22:19;;;;;;;;;;;21.70;37.80;;;;;;464765;256;2209;-42
2022/12/01 04:24:21;;;;;;;;;;;21.90;37.60;;;;;;464915;256;1376;-45
2022/12/01 04:26:22;;;;;;;;;;;21.90;37.40;;;;;;464874;256;1324;-42
2022/12/01 04:28:24;;;;;;;;;;;22.00;37.30;;;;;;464898;256;2182;-41
2022/12/01 04:30:26;;;;;;;;;;;22.10;37.20;;;;;;464871;256;1449;-45
2022/12/01 04:32:27;;;;;;;;;;;22.10;37.00;;;;;;464896;256;1311;-44
2022/12/01 04:34:29;;;;;;;;;;;22.20;36.90;;;;;;464891;256;1361;-45
2022/12/01 04:36:30;;;;;;;;;;;22.20;36.80;;;;;;464807;256;1671;-44
2022/12/01 04:38:31;;;;;;;;;;;22.30;36.80;;;;;;464891;256;1223;-41
2022/12/01 04:40:33;;;;;;;;;;;22.30;36.70;;;;;;464936;256;1245;-45
2022/12/01 04:42:35;;;;;;;;;;;22.40;36.60;;;;;;464765;256;1659;-45
2022/12/01 04:44:37;;;;;;;;;;;22.40;36.50;;;;;;465000;256;2120;-45
2022/12/01 04:46:38;;;;;;;;;;;22.50;36.50;;;;;;464695;256;1562;-45
2022/12/01 04:48:40;;;;;;;;;;;22.50;36.40;;;;;;464870;256;2171;-45
2022/12/01 04:50:41;;;;;;;;;;;22.50;36.30;;;;;;464819;256;1653;-44
2022/12/01 04:52:42;;;;;;;;;;;22.50;36.30;;;;;;464736;256;1487;-42
2022/12/01 04:54:44;;;;;;;;;;;22.60;36.30;;;;;;464813;256;1245;-45
2022/12/01 04:56:45;;;;;;;;;;;22.60;36.30;;;;;;464928;256;1285;-43
2022/12/01 04:58:47;;;;;;;;;;;22.70;36.20;;;;;;464869;256;1318;-43
2022/12/01 05:00:49;;;;;;;;;;;22.70;36.20;;;;;;464884;256;1599;-45
2022/12/01 05:02:51;;;;;;;;;;;22.70;36.10;;;;;;464836;256;2453;-42
2022/12/01 05:04:52;;;;;;;;;;;22.70;36.00;;;;;;464957;256;1263;-44
2022/12/01 05:06:53;;;;;;;;;;;22.80;36.10;;;;;;464813;256;1575;-45
2022/12/01 05:08:54;;;;;;;;;;;22.80;36.00;;;;;;464905;256;2170;-44
2022/12/01 05:10:56;;;;;;;;;;;22.80;36.00;;;;;;465007;256;2078;-45
2022/12/01 05:12:59;;;;;;;;;;;22.80;35.90;;;;;;464930;256;1352;-44
2022/12/01 05:14:59;;;;;;;;;;;22.90;35.90;;;;;;464832;256;2331;-45
2022/12/01 05:17:01;;;;;;;;;;;22.90;35.90;;;;;;464945;256;2117;-44
2022/12/01 05:21:22;;;;;;;;;;;22.90;35.90;;;;;;464798;257;1707;-45
2022/12/01 05:23:25;;;;;;;;;;;22.90;35.80;;;;;;464896;256;1414;-41
2022/12/01 05:25:27;;;;;;;;;;;22.90;35.80;;;;;;464781;256;1370;-44
2022/12/01 05:27:29;;;;;;;;;;;23.00;35.80;;;;;;464847;256;1339;-42
2022/12/01 05:29:31;;;;;;;;;;;23.00;35.70;;;;;;464757;256;2206;-41
2022/12/01 05:31:32;;;;;;;;;;;23.00;35.70;;;;;;465044;256;1685;-46
2022/12/01 05:33:34;;;;;;;;;;;23.00;35.70;;;;;;464795;256;1503;-45
2022/12/01 05:35:35;;;;;;;;;;;23.00;35.70;;;;;;464793;256;1247;-45
2022/12/01 05:37:37;;;;;;;;;;;23.10;35.70;;;;;;464852;256;2920;-45
2022/12/01 05:39:39;;;;;;;;;;;23.10;35.70;;;;;;464799;256;1367;-45
2022/12/01 05:41:41;;;;;;;;;;;23.10;35.60;;;;;;464858;256;2211;-44
2022/12/01 05:43:42;;;;;;;;;;;23.10;35.60;;;;;;464817;256;1428;-45
2022/12/01 05:45:44;;;;;;;;;;;23.10;35.60;;;;;;464872;256;1632;-44
2022/12/01 05:47:45;;;;;;;;;;;23.10;35.60;;;;;;464802;256;1354;-45
2022/12/01 05:49:46;;;;;;;;;;;23.10;35.60;;;;;;465007;256;2226;-45
2022/12/01 05:51:48;;;;;;;;;;;23.20;35.60;;;;;;464809;256;1715;-45
2022/12/01 05:53:49;;;;;;;;;;;23.20;35.60;;;;;;464957;256;1258;-44
2022/12/01 05:55:50;;;;;;;;;;;23.20;35.60;;;;;;464907;256;1875;-45
2022/12/01 05:57:52;;;;;;;;;;;23.20;35.50;;;;;;464901;256;1684;-45
2022/12/01 05:59:53;;;;;;;;;;;23.20;35.50;;;;;;464785;256;1737;-45
2022/12/01 06:01:55;;;;;;;;;;;23.20;35.50;;;;;;464694;256;1287;-46
2022/12/01 06:03:56;;;;;;;;;;;23.20;35.50;;;;;;464827;256;1872;-44
2022/12/01 06:05:58;;;;;;;;;;;23.20;35.50;;;;;;464887;256;1356;-43
2022/12/01 06:08:00;;;;;;;;;;;23.20;35.50;;;;;;464738;256;1699;-45
2022/12/01 06:10:02;;;;;;;;;;;23.20;35.40;;;;;;464759;256;2166;-45
2022/12/01 06:12:06;;;;;;;;;;;23.30;35.40;;;;;;464718;256;1267;-42
2022/12/01 06:14:08;;;;;;;;;;;23.30;35.40;;;;;;464694;256;1234;-45
2022/12/01 06:16:09;;;;;;;;;;;23.30;35.40;;;;;;464782;256;2786;-45
2022/12/01 06:18:10;;;;;;;;;;;23.30;35.40;;;;;;464798;256;1461;-45
2022/12/01 06:20:12;;;;;;;;;;;23.30;35.40;;;;;;464849;256;1317;-45
2022/12/01 06:22:14;;;;;;;;;;;23.30;35.40;;;;;;464738;257;1900;-45
2022/12/01 06:24:16;;;;;;;;;;;23.30;35.40;;;;;;464784;256;1289;-42
2022/12/01 06:26:17;;;;;;;;;;;23.30;35.40;;;;;;464686;256;1314;-46
2022/12/01 06:28:18;;;;;;;;;;;23.30;35.40;;;;;;464710;256;1351;-43
2022/12/01 06:30:20;;;;;;;;;;;23.30;35.40;;;;;;464835;256;2194;-45
2022/12/01 06:32:22;;;;;;;;;;;23.40;35.40;;;;;;464741;256;1368;-45
2022/12/01 06:34:24;;;;;;;;;;;23.40;35.40;;;;;;464779;256;1369;-45
2022/12/01 06:36:26;;;;;;;;;;;23.40;35.40;;;;;;464767;256;2290;-44
2022/12/01 06:38:27;;;;;;;;;;;23.40;35.40;;;;;;464804;256;1303;-42
2022/12/01 06:40:29;;;;;;;;;;;23.40;35.40;;;;;;464849;256;1255;-44
2022/12/01 06:42:31;;;;;;;;;;;23.40;35.40;;;;;;464697;256;1244;-42
2022/12/01 06:44:32;;;;;;;;;;;23.30;35.50;;;;;;464617;257;1563;-45
2022/12/01 06:46:33;;;;;;;;;;;23.30;35.60;;;;;;464680;256;2059;-45
2022/12/01 06:48:34;;;;;;;;;;;23.20;35.80;;;;;;464875;256;1264;-45
2022/12/01 06:50:36;;;;;;;;;;;22.90;36.10;;;;;;464780;256;2202;-45
2022/12/01 06:52:38;;;;;;;;;;;22.60;36.50;;;;;;464605;256;1309;-42
2022/12/01 06:54:39;;;;;;;;;;;22.50;36.90;;;;;;464753;256;1272;-45
2022/12/01 06:56:42;;;;;;;;;;;22.30;37.10;;;;;;464721;256;1377;-43
2022/12/01 06:58:44;;;;;;;;;;;22.20;37.40;;;;;;464745;256;1294;-45
2022/12/01 07:00:45;;;;;;;;;;;22.20;37.50;;;;;;464709;256;1366;-45
2022/12/01 07:02:47;;;;;;;;;;;22.10;37.70;;;;;;464760;256;1344;-45
2022/12/01 07:04:48;;;;;;;;;;;22.00;37.80;;;;;;464499;256;1812;-45
2022/12/01 07:06:50;;;;;;;;;;;22.00;38.00;;;;;;464673;256;1278;-43
2022/12/01 07:08:51;;;;;;;;;;;21.90;38.00;;;;;;464594;256;2198;-45
2022/12/01 07:10:53;;;;;;;;;;;21.80;38.10;;;;;;464646;256;1774;-44
2022/12/01 07:12:54;;;;;;;;;;;21.80;38.20;;;;;;464581;256;1691;-44
2022/12/01 07:14:56;;;;;;;;;;;21.80;38.20;;;;;;464589;256;1693;-45
2022/12/01 07:16:57;;;;;;;;;;;21.80;38.20;;;;;;464473;256;1493;-45
2022/12/01 07:18:59;;;;;;;;;;;21.70;38.30;;;;;;464414;256;1722;-45
2022/12/01 07:21:01;;;;;;;;;;;21.70;38.30;;;;;;464564;256;1267;-45
2022/12/01 07:23:03;;;;;;;;;;;21.70;38.40;;;;;;464429;257;2171;-42
2022/12/01 07:25:04;;;;;;;;;;;21.60;38.40;;;;;;464398;256;1593;-41
2022/12/01 07:27:06;;;;;;;;;;;21.60;38.40;;;;;;464518;256;1321;-45
2022/12/01 07:29:07;;;;;;;;;;;21.60;38.30;;;;;;464537;256;2219;-42
2022/12/01 07:31:09;;;;;;;;;;;21.60;38.30;;;;;;464523;256;1771;-45
2022/12/01 07:33:10;;;;;;;;;;;21.60;38.30;;;;;;464564;256;1211;-45
2022/12/01 07:35:12;;;;;;;;;;;21.60;38.30;;;;;;464606;256;1670;-42
2022/12/01 07:37:13;;;;;;;;;;;21.60;38.30;;;;;;464438;256;1650;-44
2022/12/01 07:39:15;;;;;;;;;;;21.60;38.40;;;;;;464494;256;1761;-45
2022/12/01 07:41:17;;;;;;;;;;;21.50;38.40;;;;;;464466;256;1709;-44
2022/12/01 07:43:17;;;;;;;;;;;21.50;38.30;;;;;;464601;257;2197;-45
2022/12/01 07:45:19;;;;;;;;;;;21.50;38.40;;;;;;464434;256;1659;-45
2022/12/01 07:47:20;;;;;;;;;;;21.50;38.40;;;;;;464408;256;1599;-45
2022/12/01 07:49:22;;;;;;;;;;;21.50;38.40;;;;;;464495;256;2219;-45
2022/12/01 07:51:23;;;;;;;;;;;21.40;38.40;;;;;;464393;256;2139;-45
2022/12/01 07:53:24;;;;;;;;;;;21.50;38.40;;;;;;464397;256;1432;-45
2022/12/01 07:55:26;;;;;;;;;;;21.50;38.40;;;;;;464132;256;2526;-45
2022/12/01 07:57:27;;;;;;;;;;;21.40;38.40;;;;;;464145;256;1676;-45
2022/12/01 07:59:29;;;;;;;;;;;21.50;38.50;;;;;;464389;256;1967;-43
2022/12/01 08:01:30;;;;;;;;;;;21.40;38.50;;;;;;464191;256;1215;-44
2022/12/01 08:03:32;;;;;;;;;;;21.40;38.40;;;;;;464279;256;1670;-45
2022/12/01 08:05:34;;;;;;;;;;;21.40;38.40;;;;;;464336;256;1332;-45
2022/12/01 08:07:35;;;;;;;;;;;21.60;38.10;;;;;;464134;256;1193;-45
2022/12/01 08:09:37;;;;;;;;;;;21.90;37.70;;;;;;464205;256;2205;-45
2022/12/01 08:11:38;;;;;;;;;;;22.00;37.30;;;;;;464230;256;1241;-45
2022/12/01 08:13:40;;;;;;;;;;;22.20;37.00;;;;;;464195;256;1395;-46
2022/12/01 08:15:41;;;;;;;;;;;22.30;36.90;;;;;;464311;256;1197;-45
2022/12/01 08:17:42;;;;;;;;;;;22.30;36.90;;;;;;464218;256;1172;-45
2022/12/01 08:19:44;;;;;;;;;;;22.20;37.00;;;;;;464170;256;1183;-45
2022/12/01 08:21:45;;;;;;;;;;;22.00;37.20;;;;;;464223;256;1203;-45
2022/12/01 08:23:47;;;;;;;;;;;22.00;37.40;;;;;;464035;256;1349;-45
2022/12/01 08:25:48;;;;;;;;;;;21.80;37.60;;;;;;464090;256;1199;-45
2022/12/01 08:27:49;;;;;;;;;;;21.80;37.70;;;;;;463947;256;1345;-45
2022/12/01 08:29:51;;;;;;;;;;;21.70;37.80;;;;;;464200;256;2202;-45
2022/12/01 08:31:52;;;;;;;;;;;21.70;37.90;;;;;;464278;256;1239;-45
2022/12/01 08:33:53;;;;;;;;;;;21.60;37.90;;;;;;464165;256;1186;-45
2022/12/01 08:35:54;;;;;;;;;;;21.60;37.90;;;;;;464160;256;1362;-45
2022/12/01 08:37:56;;;;;;;;;;;21.60;37.90;;;;;;464096;256;1228;-45
2022/12/01 08:39:57;;;;;;;;;;;21.60;38.00;;;;;;464023;256;1316;-45
2022/12/01 08:41:58;;;;;;;;;;;21.60;38.00;;;;;;464108;256;1182;-45
2022/12/01 08:44:00;;;;;;;;;;;21.60;38.10;;;;;;464165;256;1316;-45
2022/12/01 08:46:01;;;;;;;;;;;21.50;38.00;;;;;;464053;256;1270;-45
2022/12/01 08:48:02;;;;;;;;;;;21.50;38.10;;;;;;463992;256;1544;-45
2022/12/01 08:50:05;;;;;;;;;;;21.50;38.10;;;;;;464090;256;2219;-45
2022/12/01 08:52:05;;;;;;;;;;;21.50;38.00;;;;;;464063;256;1858;-45
2022/12/01 08:54:06;;;;;;;;;;;21.50;38.10;;;;;;464236;256;1229;-45
2022/12/01 08:56:08;;;;;;;;;;;21.50;38.10;;;;;;464216;256;1924;-45
2022/12/01 08:58:09;;;;;;;;;;;21.50;38.10;;;;;;464066;256;1273;-45
2022/12/01 09:00:11;;;;;;;;;;;21.50;38.10;;;;;;463945;256;1295;-45
2022/12/01 09:02:12;;;;;;;;;;;21.50;38.10;;;;;;464195;256;1268;-45
2022/12/01 09:04:14;;;;;;;;;;;21.50;38.10;;;;;;464009;256;1563;-45
2022/12/01 09:06:15;;;;;;;;;;;21.50;38.00;;;;;;464108;256;1168;-45
2022/12/01 09:08:32;;;;;;;;;;;21.50;38.00;;;;;;464166;256;1261;-45
2022/12/01 09:10:33;;;;;;;;;;;21.50;38.00;;;;;;464014;256;2386;-45
2022/12/01 09:12:34;;;;;;;;;;;21.50;38.00;;;;;;463934;256;1388;-45
2022/12/01 09:14:35;;;;;;;;;;;21.50;38.00;;;;;;463950;256;1228;-45
2022/12/01 09:16:37;;;;;;;;;;;21.50;37.90;;;;;;463958;256;1273;-45
2022/12/01 09:18:38;;;;;;;;;;;21.50;37.90;;;;;;464098;256;1305;-45
2022/12/01 09:20:39;;;;;;;;;;;21.50;38.00;;;;;;464149;256;1440;-45
2022/12/01 09:22:41;;;;;;;;;;;21.50;37.90;;;;;;464047;256;1518;-45
2022/12/01 09:24:42;;;;;;;;;;;21.50;37.90;;;;;;464056;256;1221;-45
2022/12/01 09:26:43;;;;;;;;;;;21.50;37.90;;;;;;464082;256;1362;-45
2022/12/01 09:28:45;;;;;;;;;;;21.50;38.00;;;;;;463913;256;1266;-45
2022/12/01 09:30:46;;;;;;;;;;;21.50;38.00;;;;;;464064;256;2206;-45
2022/12/01 09:32:47;;;;;;;;;;;21.50;38.00;;;;;;463806;256;1323;-45
2022/12/01 09:34:49;;;;;;;;;;;21.50;38.00;;;;;;463880;256;1407;-45
2022/12/01 09:36:50;;;;;;;;;;;21.50;37.90;;;;;;464005;256;1359;-45
2022/12/01 09:38:51;;;;;;;;;;;21.50;37.90;;;;;;463972;256;1548;-45
2022/12/01 09:40:53;;;;;;;;;;;21.50;37.90;;;;;;463970;256;1342;-45
2022/12/01 09:42:54;;;;;;;;;;;21.40;37.90;;;;;;464096;256;1323;-45
2022/12/01 09:44:56;;;;;;;;;;;21.40;37.90;;;;;;464076;256;1370;-45
2022/12/01 09:46:57;;;;;;;;;;;21.40;38.00;;;;;;464026;256;1187;-45
2022/12/01 09:48:58;;;;;;;;;;;21.40;38.00;;;;;;463960;257;1995;-45
2022/12/01 09:50:59;;;;;;;;;;;21.40;38.00;;;;;;464045;256;2214;-45
2022/12/01 09:53:01;;;;;;;;;;;21.40;38.00;;;;;;463877;256;1297;-44
2022/12/01 09:55:02;;;;;;;;;;;21.40;38.10;;;;;;463992;256;1314;-44
2022/12/01 09:57:03;;;;;;;;;;;21.40;38.10;;;;;;464144;256;1374;-45
2022/12/01 09:59:05;;;;;;;;;;;21.40;38.20;;;;;;464010;256;1195;-44
2022/12/01 10:01:06;;;;;;;;;;;21.40;38.10;;;;;;463920;256;1953;-44
2022/12/01 10:03:08;;;;;;;;;;;21.40;38.10;;;;;;463892;256;1237;-44
2022/12/01 10:05:09;;;;;;;;;;;21.40;38.10;;;;;;463956;256;1246;-45
2022/12/01 10:07:10;;;;;;;;;;;21.40;38.00;;;;;;463988;256;1380;-44
2022/12/01 10:09:11;;;;;;;;;;;21.40;38.00;;;;;;464038;256;1383;-44
2022/12/01 10:11:13;;;;;;;;;;;21.40;37.90;;;;;;464070;256;2213;-44
2022/12/01 10:13:14;;;;;;;;;;;21.40;38.00;;;;;;463947;256;1303;-44
2022/12/01 10:15:15;;;;;;;;;;;21.40;38.00;;;;;;463947;256;1580;-44
2022/12/01 10:17:16;;;;;;;;;;;21.40;37.90;;;;;;464048;256;1278;-44
2022/12/01 10:19:18;;;;;;;;;;;21.40;37.90;;;;;;464142;256;1363;-44
2022/12/01 10:21:19;;;;;;;;;;;21.40;37.90;;;;;;464137;256;1349;-44
2022/12/01 10:23:21;;;;;;;;;;;21.40;37.90;;;;;;464087;256;1353;-44
2022/12/01 10:25:22;;;;;;;;;;;21.40;37.90;;;;;;464102;256;1264;-44
2022/12/01 10:27:23;;;;;;;;;;;21.40;37.90;;;;;;464021;256;1274;-44
2022/12/01 10:29:24;;;;;;;;;;;21.40;37.90;;;;;;464026;256;1240;-44
2022/12/01 10:31:26;;;;;;;;;;;21.40;37.90;;;;;;464023;256;2159;-44
2022/12/01 10:33:27;;;;;;;;;;;21.40;37.90;;;;;;464018;256;1241;-44
2022/12/01 10:35:30;;;;;;;;;;;21.40;37.90;;;;;;464217;256;1608;-44
2022/12/01 10:37:30;;;;;;;;;;;21.40;37.90;;;;;;463966;256;2063;-44
2022/12/01 10:39:31;;;;;;;;;;;21.40;37.90;;;;;;463995;256;1227;-44
2022/12/01 10:41:33;;;;;;;;;;;21.40;37.90;;;;;;464102;256;1375;-44
2022/12/01 10:43:34;;;;;;;;;;;21.40;37.80;;;;;;464116;256;1212;-44
2022/12/01 10:45:35;;;;;;;;;;;21.40;37.80;;;;;;464094;256;1191;-44
2022/12/01 10:47:37;;;;;;;;;;;21.40;37.80;;;;;;464050;256;1520;-44
2022/12/01 10:49:38;;;;;;;;;;;21.40;37.90;;;;;;464196;256;1253;-44
2022/12/01 10:51:39;;;;;;;;;;;21.40;37.90;;;;;;464148;256;2207;-44
2022/12/01 10:53:40;;;;;;;;;;;21.40;37.80;;;;;;464226;256;1285;-45
2022/12/01 10:55:42;;;;;;;;;;;21.40;37.80;;;;;;464124;256;1237;-44
2022/12/01 10:57:43;;;;;;;;;;;21.40;37.80;;;;;;464189;256;1245;-45
2022/12/01 10:59:44;;;;;;;;;;;21.40;37.80;;;;;;464138;256;1312;-44
2022/12/01 11:01:46;;;;;;;;;;;21.40;37.80;;;;;;464078;256;1272;-44
2022/12/01 11:03:47;;;;;;;;;;;21.40;37.80;;;;;;464025;256;1658;-44
2022/12/01 11:05:51;;;;;;;;;;;21.40;37.80;;;;;;464416;256;1481;-44
2022/12/01 11:07:50;;;;;;;;;;;21.40;37.80;;;;;;464061;256;1714;-45
2022/12/01 11:09:51;;;;;;;;;;;21.40;37.80;;;;;;464142;256;1285;-44
2022/12/01 11:11:52;;;;;;;;;;;21.40;37.80;;;;;;464045;256;2214;-44
2022/12/01 11:13:54;;;;;;;;;;;21.40;37.70;;;;;;464156;256;1207;-44
2022/12/01 11:15:55;;;;;;;;;;;21.40;37.80;;;;;;464093;256;1330;-44
2022/12/01 11:17:57;;;;;;;;;;;21.40;37.70;;;;;;464224;256;1384;-44
2022/12/01 11:19:58;;;;;;;;;;;21.40;38.00;;;;;;464137;256;1349;-44
2022/12/01 11:22:00;;;;;;;;;;;21.40;37.80;;;;;;464103;256;1294;-44
2022/12/01 11:24:01;;;;;;;;;;;21.40;37.90;;;;;;464078;256;1388;-44
2022/12/01 11:26:02;;;;;;;;;;;21.50;37.90;;;;;;464254;256;1317;-44
2022/12/01 11:28:04;;;;;;;;;;;21.50;38.00;;;;;;464008;256;1864;-44
2022/12/01 11:30:05;;;;;;;;;;;21.50;38.00;;;;;;464078;256;1263;-45
2022/12/01 11:32:06;;;;;;;;;;;21.50;38.00;;;;;;464101;256;2135;-44
2022/12/01 11:34:07;;;;;;;;;;;21.50;37.90;;;;;;464093;256;1307;-44
2022/12/01 11:36:09;;;;;;;;;;;21.50;37.80;;;;;;464053;256;1262;-44
2022/12/01 11:38:10;;;;;;;;;;;21.50;37.80;;;;;;464188;256;1340;-44
2022/12/01 11:40:12;;;;;;;;;;;21.50;37.80;;;;;;464226;256;1315;-45
2022/12/01 11:42:13;;;;;;;;;;;21.50;37.80;;;;;;464120;256;1719;-44
2022/12/01 11:44:14;;;;;;;;;;;21.50;37.80;;;;;;464183;256;1233;-44
2022/12/01 11:46:15;;;;;;;;;;;21.50;37.80;;;;;;463972;256;1246;-44
2022/12/01 11:48:17;;;;;;;;;;;21.50;37.70;;;;;;464218;256;1370;-44
2022/12/01 11:50:18;;;;;;;;;;;21.50;37.70;;;;;;464157;256;1393;-45
2022/12/01 11:52:19;;;;;;;;;;;21.50;37.70;;;;;;464287;256;2128;-44
2022/12/01 11:54:21;;;;;;;;;;;21.50;37.70;;;;;;464318;256;1401;-44
2022/12/01 11:56:22;;;;;;;;;;;21.50;37.70;;;;;;464157;256;1712;-44
2022/12/01 11:58:24;;;;;;;;;;;21.50;37.70;;;;;;464317;256;1286;-44
2022/12/01 12:00:25;;;;;;;;;;;21.60;37.70;;;;;;464221;256;1253;-45
2022/12/01 12:02:26;;;;;;;;;;;21.50;37.70;;;;;;464141;256;1212;-44
2022/12/01 12:04:28;;;;;;;;;;;21.50;37.70;;;;;;464273;256;1270;-44